Atlantic Clover — 3FVD6 — position and weather

sailwx.info

Track history (hours):
 
Tides and Currents Weather Stations Pressure Air Temp Water Temp Dewpoint Dewpoint Depression Visibility Wind Speed Wind Dir Waves Ship Positions

Atlantic Clover

Last reported at 2016-Aug-23 15:04 UTC. Time now 2016-Aug-28 10:28 UTC.
Position N 37°55' E 024°35'.

Length 180 m; draft 8.5 m.

Type: Cargo ship. MMSI: 371263000.

Date/timePositionNaut miles runAvg speedWind from/ knotsBaromVisibWave heightAir tempDewpointWater temp
2016-Aug-23 15:04N 37°55' E 024°35'611.2
2016-Aug-23 14:31N 37°52' E 024°29'1212.4
2016-Aug-23 13:32N 37°44' E 024°17'1512.6
2016-Aug-23 12:22N 37°31' E 024°08'1012.2
2016-Aug-23 11:32N 37°22' E 024°03'1312.9
2016-Aug-23 10:33N 37°10' E 023°56'1111.4
2016-Aug-23 09:33N 37°00' E 023°50'1211.3
2016-Aug-23 08:30N 36°49' E 023°43'1712.2
2016-Aug-23 07:08N 36°36' E 023°31'812.2
2016-Aug-23 06:26N 36°30' E 023°24'1111.9
2016-Aug-23 05:31N 36°22' E 023°14'28112.7
2016-Aug-22 07:22N 36°20' E 017°26'5012.8
2016-Aug-22 03:28N 36°20' E 016°24'1212.4
2016-Aug-22 02:32N 36°20' E 016°09'1212.4
2016-Aug-22 01:33N 36°20' E 015°54'1312.6
2016-Aug-22 00:33N 36°20' E 015°39'1312.8
2016-Aug-21 23:33N 36°20' E 015°23'1312.9
2016-Aug-21 22:33N 36°20' E 015°07'1312.8
2016-Aug-21 21:33N 36°20' E 014°51'1312.9
2016-Aug-21 20:33N 36°20' E 014°35'1212.4
2016-Aug-21 19:33N 36°23' E 014°20'1312.8
2016-Aug-21 18:33N 36°27' E 014°05'1312.9
2016-Aug-21 17:33N 36°31' E 013°50'1313.2
2016-Aug-21 16:33N 36°35' E 013°34'1313.2
2016-Aug-21 15:33N 36°39' E 013°18'1313.1
2016-Aug-21 14:33N 36°44' E 013°03'1312.8
2016-Aug-21 13:33N 36°47' E 012°48'1312.7
2016-Aug-21 12:33N 36°51' E 012°33'1312.7
2016-Aug-21 11:33N 36°56' E 012°18'1413.6
2016-Aug-21 10:33N 37°02' E 012°03'1413.4
2016-Aug-21 09:32N 37°08' E 011°47'3912.9
2016-Aug-21 06:33N 37°24' E 011°03'1312.9
2016-Aug-21 05:33N 37°27' E 010°47'3712.4
2016-Aug-21 02:33N 37°34' E 010°01'6312.6
2016-Aug-20 21:32N 37°36' E 008°42'3611.9
2016-Aug-20 18:30N 37°32' E 007°57'1711.8
2016-Aug-20 17:05N 37°31' E 007°36'712.3
2016-Aug-20 16:32N 37°31' E 007°27'1212.4
2016-Aug-20 15:33N 37°30' E 007°12'1312.5
2016-Aug-20 14:29N 37°29' E 006°55'1212.7
2016-Aug-20 13:33N 37°28' E 006°40'1312.7
2016-Aug-20 12:33N 37°27' E 006°24'1312.7
2016-Aug-20 11:32N 37°25' E 006°08'1312.4
2016-Aug-20 10:29N 37°24' E 005°51'1212.4
2016-Aug-20 09:32N 37°23' E 005°37'4912.3
2016-Aug-20 05:31N 37°19' E 004°35'1212.4
2016-Aug-20 04:31N 37°19' E 004°19'1212.2
2016-Aug-20 03:33N 37°17' E 004°04'1212.3
2016-Aug-20 02:33N 37°15' E 003°49'6412.8
2016-Aug-19 21:33N 37°04' E 002°30'1312.7
2016-Aug-19 20:33N 37°01' E 002°15'1212.1
2016-Aug-19 19:33N 36°59' E 001°60'1212.3
2016-Aug-19 18:33N 36°57' E 001°45'1212.5
2016-Aug-19 17:33N 36°55' E 001°29'1413.2
2016-Aug-19 16:31N 36°52' E 001°12'1313.1
2016-Aug-19 15:33N 36°50' E 000°57'1513.2
2016-Aug-19 14:24N 36°47' E 000°38'2713.0
2016-Aug-19 12:19N 36°42' E 000°05'3612.4
2016-Aug-19 09:25N 36°36' W 000°39'1512.2
2016-Aug-19 08:12N 36°33' W 000°57'913.0
2016-Aug-19 07:32N 36°31' W 001°08'1612.9
2016-Aug-19 06:20N 36°28' W 001°27'2313.0
2016-Aug-19 04:32N 36°24' W 001°55'1212.3
2016-Aug-19 03:33N 36°22' W 002°10'1211.8
2016-Aug-19 02:33N 36°21' W 002°25'1312.7
2016-Aug-19 01:31N 36°18' W 002°41'3313.6
2016-Aug-18 23:04N 36°13' W 003°21'8214.3
2016-Aug-18 17:19N 36°01' W 005°02'1114.8
2016-Aug-18 16:33N 35°59' W 005°16'1515.3
2016-Aug-18 15:33N 35°56' W 005°34'1515.2
2016-Aug-18 14:33N 35°54' W 005°53'1913.3
2016-Aug-18 13:08N 35°55' W 006°17'4711.9
2016-Aug-18 09:12N 36°07' W 007°12'913.0
2016-Aug-18 08:28N 36°09' W 007°24'1112.5
2016-Aug-18 07:33N 36°12' W 007°37'1212.3
2016-Aug-18 06:33N 36°15' W 007°52'2612.2
2016-Aug-18 04:25N 36°22' W 008°23'1011.8
2016-Aug-18 03:33N 36°25' W 008°36'1212.0
2016-Aug-18 02:33N 36°28' W 008°50'1212.3
2016-Aug-18 01:33N 36°31' W 009°05'1212.2
2016-Aug-18 00:33N 36°36' W 009°19'1212.2
2016-Aug-17 23:33N 36°45' W 009°29'1212.3
2016-Aug-17 22:33N 36°56' W 009°35'1312.7
2016-Aug-17 21:33N 37°08' W 009°39'1313.2
2016-Aug-17 20:32N 37°21' W 009°43'1312.9
2016-Aug-17 19:33N 37°34' W 009°47'1313.0
2016-Aug-17 18:33N 37°46' W 009°51'1312.9
2016-Aug-17 17:33N 37°59' W 009°54'1312.9
2016-Aug-17 16:33N 38°12' W 009°58'1313.0
2016-Aug-17 15:33N 38°24' W 010°02'1313.1
2016-Aug-17 14:33N 38°37' W 010°05'1312.8
2016-Aug-17 13:33N 38°50' W 010°07'1312.7
2016-Aug-17 12:33N 39°03' W 010°07'1312.5
2016-Aug-17 11:33N 39°15' W 010°07'1313.0
2016-Aug-17 10:33N 39°28' W 010°06'1212.6
2016-Aug-17 09:33N 39°41' W 010°06'1712.8
2016-Aug-17 08:14N 39°58' W 010°06'55412.1
2016-Aug-15 10:18N 48°50' W 006°32'2212.5
2016-Aug-15 08:32N 49°10' W 006°18'1312.8
2016-Aug-15 07:33N 49°22' W 006°10'1312.9
2016-Aug-15 06:33N 49°33' W 006°02'2512.6
2016-Aug-15 04:33N 49°59' W 006°01'1312.8
2016-Aug-15 03:33N 50°11' W 006°01'1111.2
2016-Aug-15 02:33N 50°22' W 005°57'1211.7
2016-Aug-15 01:33N 50°30' W 005°43'1211.8
2016-Aug-15 00:33N 50°37' W 005°29'1212.1
2016-Aug-14 23:33N 50°46' W 005°15'1212.4
2016-Aug-14 22:33N 50°54' W 005°00'1312.6
2016-Aug-14 21:33N 51°02' W 004°45'1313.4
2016-Aug-14 20:34N 51°11' W 004°29'1413.7
2016-Aug-14 19:34N 51°19' W 004°12'1614.8
2016-Aug-14 18:29N 51°20' W 003°46'1514.8
2016-Aug-14 17:27N 51°21' W 003°22'1112.6
2016-Aug-14 16:33N 51°23' W 003°04'1212.3
2016-Aug-14 15:33N 51°30' W 002°47'3 3.0
2016-Aug-14 14:34N 51°30' W 002°43'0 0.3
2016-Aug-14 13:32N 51°30' W 002°42'0 0.0
2016-Aug-14 12:32N 51°30' W 002°42'0 0.0
2016-Aug-14 11:32N 51°30' W 002°42'0 0.0
2016-Aug-14 10:32N 51°30' W 002°42'0 0.0
2016-Aug-14 09:32N 51°30' W 002°42'0 0.0
2016-Aug-14 08:32N 51°30' W 002°42'0 0.0
2016-Aug-14 07:32N 51°30' W 002°42'0 0.0
2016-Aug-14 06:32N 51°30' W 002°42'0 0.0
2016-Aug-14 04:32N 51°30' W 002°42'0 0.0
2016-Aug-14 03:32N 51°30' W 002°42'0 0.0
2016-Aug-14 02:32N 51°30' W 002°42'0 0.0
2016-Aug-14 01:32N 51°30' W 002°42'0 0.0
2016-Aug-14 00:32N 51°30' W 002°42'0 0.0
2016-Aug-13 23:32N 51°30' W 002°42'0 0.0
2016-Aug-13 22:32N 51°30' W 002°42'0 0.0
2016-Aug-13 21:32N 51°30' W 002°42'0 0.0
2016-Aug-13 20:32N 51°30' W 002°42'0 0.0
2016-Aug-13 19:32N 51°30' W 002°42'0 0.0
2016-Aug-13 18:32N 51°30' W 002°42'0 0.0
2016-Aug-13 17:32N 51°30' W 002°42'0 0.0
2016-Aug-13 16:32N 51°30' W 002°42'0 0.0
2016-Aug-13 15:32N 51°30' W 002°42'  
Track history (hours):
 
Tides and Currents Weather Stations Pressure Air Temp Water Temp Dewpoint Dewpoint Depression Visibility Wind Speed Wind Dir Waves Ship Positions

Atlantic Clover

Last reported at 2016-Aug-23 15:04 UTC. Time now 2016-Aug-28 10:28 UTC.
Position N 37°55' E 024°35'.

Length 180 m; draft 8.5 m.

Type: Cargo ship. MMSI: 371263000.

Date/timePositionNaut miles runAvg speedWind from/ knotsBaromVisibWave heightAir tempDewpointWater temp
2016-Aug-23 15:04N 37°55' E 024°35'611.2
2016-Aug-23 14:31N 37°52' E 024°29'1212.4
2016-Aug-23 13:32N 37°44' E 024°17'1512.6
2016-Aug-23 12:22N 37°31' E 024°08'1012.2
2016-Aug-23 11:32N 37°22' E 024°03'1312.9
2016-Aug-23 10:33N 37°10' E 023°56'1111.4
2016-Aug-23 09:33N 37°00' E 023°50'1211.3
2016-Aug-23 08:30N 36°49' E 023°43'1712.2
2016-Aug-23 07:08N 36°36' E 023°31'812.2
2016-Aug-23 06:26N 36°30' E 023°24'1111.9
2016-Aug-23 05:31N 36°22' E 023°14'28112.7
2016-Aug-22 07:22N 36°20' E 017°26'5012.8
2016-Aug-22 03:28N 36°20' E 016°24'1212.4
2016-Aug-22 02:32N 36°20' E 016°09'1212.4
2016-Aug-22 01:33N 36°20' E 015°54'1312.6
2016-Aug-22 00:33N 36°20' E 015°39'1312.8
2016-Aug-21 23:33N 36°20' E 015°23'1312.9
2016-Aug-21 22:33N 36°20' E 015°07'1312.8
2016-Aug-21 21:33N 36°20' E 014°51'1312.9
2016-Aug-21 20:33N 36°20' E 014°35'1212.4
2016-Aug-21 19:33N 36°23' E 014°20'1312.8
2016-Aug-21 18:33N 36°27' E 014°05'1312.9
2016-Aug-21 17:33N 36°31' E 013°50'1313.2
2016-Aug-21 16:33N 36°35' E 013°34'1313.2
2016-Aug-21 15:33N 36°39' E 013°18'1313.1
2016-Aug-21 14:33N 36°44' E 013°03'1312.8
2016-Aug-21 13:33N 36°47' E 012°48'1312.7
2016-Aug-21 12:33N 36°51' E 012°33'1312.7
2016-Aug-21 11:33N 36°56' E 012°18'1413.6
2016-Aug-21 10:33N 37°02' E 012°03'1413.4
2016-Aug-21 09:32N 37°08' E 011°47'3912.9
2016-Aug-21 06:33N 37°24' E 011°03'1312.9
2016-Aug-21 05:33N 37°27' E 010°47'3712.4
2016-Aug-21 02:33N 37°34' E 010°01'6312.6
2016-Aug-20 21:32N 37°36' E 008°42'3611.9
2016-Aug-20 18:30N 37°32' E 007°57'1711.8
2016-Aug-20 17:05N 37°31' E 007°36'712.3
2016-Aug-20 16:32N 37°31' E 007°27'1212.4
2016-Aug-20 15:33N 37°30' E 007°12'1312.5
2016-Aug-20 14:29N 37°29' E 006°55'1212.7
2016-Aug-20 13:33N 37°28' E 006°40'1312.7
2016-Aug-20 12:33N 37°27' E 006°24'1312.7
2016-Aug-20 11:32N 37°25' E 006°08'1312.4
2016-Aug-20 10:29N 37°24' E 005°51'1212.4
2016-Aug-20 09:32N 37°23' E 005°37'4912.3
2016-Aug-20 05:31N 37°19' E 004°35'1212.4
2016-Aug-20 04:31N 37°19' E 004°19'1212.2
2016-Aug-20 03:33N 37°17' E 004°04'1212.3
2016-Aug-20 02:33N 37°15' E 003°49'6412.8
2016-Aug-19 21:33N 37°04' E 002°30'1312.7
2016-Aug-19 20:33N 37°01' E 002°15'1212.1
2016-Aug-19 19:33N 36°59' E 001°60'1212.3
2016-Aug-19 18:33N 36°57' E 001°45'1212.5
2016-Aug-19 17:33N 36°55' E 001°29'1413.2
2016-Aug-19 16:31N 36°52' E 001°12'1313.1
2016-Aug-19 15:33N 36°50' E 000°57'1513.2
2016-Aug-19 14:24N 36°47' E 000°38'2713.0
2016-Aug-19 12:19N 36°42' E 000°05'3612.4
2016-Aug-19 09:25N 36°36' W 000°39'1512.2
2016-Aug-19 08:12N 36°33' W 000°57'913.0
2016-Aug-19 07:32N 36°31' W 001°08'1612.9
2016-Aug-19 06:20N 36°28' W 001°27'2313.0
2016-Aug-19 04:32N 36°24' W 001°55'1212.3
2016-Aug-19 03:33N 36°22' W 002°10'1211.8
2016-Aug-19 02:33N 36°21' W 002°25'1312.7
2016-Aug-19 01:31N 36°18' W 002°41'3313.6
2016-Aug-18 23:04N 36°13' W 003°21'8214.3
2016-Aug-18 17:19N 36°01' W 005°02'1114.8
2016-Aug-18 16:33N 35°59' W 005°16'1515.3
2016-Aug-18 15:33N 35°56' W 005°34'1515.2
2016-Aug-18 14:33N 35°54' W 005°53'1913.3
2016-Aug-18 13:08N 35°55' W 006°17'4711.9
2016-Aug-18 09:12N 36°07' W 007°12'913.0
2016-Aug-18 08:28N 36°09' W 007°24'1112.5
2016-Aug-18 07:33N 36°12' W 007°37'1212.3
2016-Aug-18 06:33N 36°15' W 007°52'2612.2
2016-Aug-18 04:25N 36°22' W 008°23'1011.8
2016-Aug-18 03:33N 36°25' W 008°36'1212.0
2016-Aug-18 02:33N 36°28' W 008°50'1212.3
2016-Aug-18 01:33N 36°31' W 009°05'1212.2
2016-Aug-18 00:33N 36°36' W 009°19'1212.2
2016-Aug-17 23:33N 36°45' W 009°29'1212.3
2016-Aug-17 22:33N 36°56' W 009°35'1312.7
2016-Aug-17 21:33N 37°08' W 009°39'1313.2
2016-Aug-17 20:32N 37°21' W 009°43'1312.9
2016-Aug-17 19:33N 37°34' W 009°47'1313.0
2016-Aug-17 18:33N 37°46' W 009°51'1312.9
2016-Aug-17 17:33N 37°59' W 009°54'1312.9
2016-Aug-17 16:33N 38°12' W 009°58'1313.0
2016-Aug-17 15:33N 38°24' W 010°02'1313.1
2016-Aug-17 14:33N 38°37' W 010°05'1312.8
2016-Aug-17 13:33N 38°50' W 010°07'1312.7
2016-Aug-17 12:33N 39°03' W 010°07'1312.5
2016-Aug-17 11:33N 39°15' W 010°07'1313.0
2016-Aug-17 10:33N 39°28' W 010°06'1212.6
2016-Aug-17 09:33N 39°41' W 010°06'1712.8
2016-Aug-17 08:14N 39°58' W 010°06'55412.1
2016-Aug-15 10:18N 48°50' W 006°32'2212.5
2016-Aug-15 08:32N 49°10' W 006°18'1312.8
2016-Aug-15 07:33N 49°22' W 006°10'1312.9
2016-Aug-15 06:33N 49°33' W 006°02'2512.6
2016-Aug-15 04:33N 49°59' W 006°01'1312.8
2016-Aug-15 03:33N 50°11' W 006°01'1111.2
2016-Aug-15 02:33N 50°22' W 005°57'1211.7
2016-Aug-15 01:33N 50°30' W 005°43'1211.8
2016-Aug-15 00:33N 50°37' W 005°29'1212.1
2016-Aug-14 23:33N 50°46' W 005°15'1212.4
2016-Aug-14 22:33N 50°54' W 005°00'1312.6
2016-Aug-14 21:33N 51°02' W 004°45'1313.4
2016-Aug-14 20:34N 51°11' W 004°29'1413.7
2016-Aug-14 19:34N 51°19' W 004°12'1614.8
2016-Aug-14 18:29N 51°20' W 003°46'1514.8
2016-Aug-14 17:27N 51°21' W 003°22'1112.6
2016-Aug-14 16:33N 51°23' W 003°04'1212.3
2016-Aug-14 15:33N 51°30' W 002°47'3 3.0
2016-Aug-14 14:34N 51°30' W 002°43'0 0.3
2016-Aug-14 13:32N 51°30' W 002°42'0 0.0
2016-Aug-14 12:32N 51°30' W 002°42'0 0.0
2016-Aug-14 11:32N 51°30' W 002°42'0 0.0
2016-Aug-14 10:32N 51°30' W 002°42'0 0.0
2016-Aug-14 09:32N 51°30' W 002°42'0 0.0
2016-Aug-14 08:32N 51°30' W 002°42'0 0.0
2016-Aug-14 07:32N 51°30' W 002°42'0 0.0
2016-Aug-14 06:32N 51°30' W 002°42'0 0.0
2016-Aug-14 04:32N 51°30' W 002°42'0 0.0
2016-Aug-14 03:32N 51°30' W 002°42'0 0.0
2016-Aug-14 02:32N 51°30' W 002°42'0 0.0
2016-Aug-14 01:32N 51°30' W 002°42'0 0.0
2016-Aug-14 00:32N 51°30' W 002°42'0 0.0
2016-Aug-13 23:32N 51°30' W 002°42'0 0.0
2016-Aug-13 22:32N 51°30' W 002°42'0 0.0
2016-Aug-13 21:32N 51°30' W 002°42'0 0.0
2016-Aug-13 20:32N 51°30' W 002°42'0 0.0
2016-Aug-13 19:32N 51°30' W 002°42'0 0.0
2016-Aug-13 18:32N 51°30' W 002°42'0 0.0
2016-Aug-13 17:32N 51°30' W 002°42'0 0.0
2016-Aug-13 16:32N 51°30' W 002°42'0 0.0
2016-Aug-13 15:32N 51°30' W 002°42'  

Dump ship's entire track history